createdAt,value
2023-08-26T00:06:02.053Z,20.92
2023-08-26T00:12:35.583Z,12.35
2023-08-26T00:18:40.129Z,14.10
2023-08-26T00:24:46.644Z,15.90
2023-08-26T00:31:04.134Z,16.77
2023-08-26T00:37:47.742Z,21.95
2023-08-26T00:44:01.328Z,12.65
2023-08-26T00:50:27.792Z,12.70
2023-08-26T00:56:46.296Z,11.30
2023-08-26T01:03:00.931Z,11.82
2023-08-26T01:09:08.463Z,12.43
2023-08-26T01:15:27.978Z,12.02
2023-08-26T01:21:41.750Z,19.95
2023-08-26T01:27:48.954Z,15.55
2023-08-26T01:34:17.527Z,17.48
2023-08-26T01:40:25.010Z,19.20
2023-08-26T01:46:43.542Z,16.88
2023-08-26T01:52:55.816Z,28.35
2023-08-26T01:59:17.629Z,20.58
2023-08-26T02:05:20.077Z,18.80
2023-08-26T02:12:00.712Z,15.10
2023-08-26T02:18:10.635Z,15.02
2023-08-26T02:24:31.937Z,11.05
2023-08-26T02:30:38.949Z,15.00
2023-08-26T02:37:04.920Z,13.48
2023-08-26T02:43:08.213Z,19.77
2023-08-26T02:49:19.835Z,14.27
2023-08-26T02:55:35.224Z,17.80
2023-08-26T03:02:16.153Z,19.63
2023-08-26T03:08:31.374Z,23.87
2023-08-26T03:14:56.936Z,35.87
2023-08-26T03:21:19.787Z,25.37
2023-08-26T03:27:23.979Z,28.60
2023-08-26T03:33:31.455Z,21.80
2023-08-26T03:39:54.911Z,27.60
2023-08-26T03:46:10.313Z,24.97
2023-08-26T03:52:55.132Z,19.70
2023-08-26T03:59:09.927Z,31.63
2023-08-26T04:05:42.865Z,20.03
2023-08-26T04:12:10.798Z,16.80
2023-08-26T04:18:20.274Z,18.90
2023-08-26T04:31:21.883Z,18.63
2023-08-26T04:38:30.437Z,22.83
2023-08-26T04:44:48.773Z,20.20
2023-08-26T04:51:03.882Z,18.60
2023-08-26T05:04:01.660Z,20.83
2023-08-26T05:10:50.964Z,18.80
2023-08-26T05:17:13.572Z,18.83
2023-08-26T05:23:25.080Z,28.00
2023-08-26T05:29:42.375Z,23.70
2023-08-26T05:36:08.193Z,18.88
2023-08-26T05:48:54.494Z,19.30
2023-08-26T05:55:00.784Z,25.65
2023-08-26T06:01:14.654Z,26.00
2023-08-26T06:07:38.274Z,17.00
2023-08-26T06:13:41.285Z,20.38
2023-08-26T06:20:00.514Z,14.35
2023-08-26T06:26:04.311Z,17.02
2023-08-26T06:32:23.852Z,18.23
2023-08-26T06:38:38.366Z,26.52
2023-08-26T06:44:40.811Z,17.05
2023-08-26T06:50:44.274Z,19.65
2023-08-26T06:56:57.772Z,23.08
2023-08-26T07:03:24.195Z,19.40
2023-08-26T07:09:31.869Z,13.40
2023-08-26T07:15:39.343Z,10.80
2023-08-26T07:22:04.122Z,13.60
2023-08-26T07:28:21.484Z,14.60
2023-08-26T07:34:33.241Z,23.83
2023-08-26T07:40:43.475Z,16.85
2023-08-26T07:46:56.704Z,21.60
2023-08-26T07:53:17.173Z,12.20
2023-08-26T07:59:35.026Z,15.50
2023-08-26T08:06:07.246Z,27.55
2023-08-26T08:12:18.926Z,15.65
2023-08-26T08:18:30.504Z,12.45
2023-08-26T08:24:42.122Z,21.85
2023-08-26T08:30:46.911Z,12.88
2023-08-26T08:37:00.060Z,19.50
2023-08-26T08:43:06.730Z,16.50
2023-08-26T08:55:47.790Z,12.23
2023-08-26T09:02:01.195Z,23.08
2023-08-26T09:08:04.592Z,14.43
2023-08-26T09:20:28.510Z,17.80
2023-08-26T09:26:32.249Z,9.60
2023-08-26T09:38:55.069Z,18.20
2023-08-26T09:45:08.055Z,12.40
2023-08-26T09:51:10.053Z,8.70
2023-08-26T09:57:13.499Z,10.65
2023-08-26T10:03:21.086Z,13.30
2023-08-26T10:09:52.570Z,10.48
2023-08-26T10:16:08.190Z,8.77
2023-08-26T10:22:11.579Z,11.73
2023-08-26T10:28:15.094Z,8.75
2023-08-26T10:34:21.519Z,17.08
2023-08-26T10:40:34.045Z,13.70
2023-08-26T10:46:54.616Z,21.42
2023-08-26T10:53:15.217Z,12.15
2023-08-26T11:06:10.330Z,6.60
2023-08-26T11:12:43.910Z,8.13
2023-08-26T11:18:55.764Z,14.57
2023-08-26T11:25:00.254Z,11.25
2023-08-26T11:31:05.680Z,7.85
2023-08-26T11:37:12.174Z,9.88
2023-08-26T11:43:25.658Z,7.07
2023-08-26T11:49:44.442Z,13.43
2023-08-26T11:56:04.038Z,11.80
2023-08-26T12:02:27.574Z,10.20
2023-08-26T12:08:35.874Z,19.88
2023-08-26T12:14:46.468Z,6.82
2023-08-26T12:21:11.036Z,7.47
2023-08-26T12:27:46.636Z,11.95
2023-08-26T12:34:00.031Z,8.40
2023-08-26T12:40:06.628Z,11.52
2023-08-26T12:46:09.212Z,16.33
2023-08-26T12:52:22.657Z,12.50
2023-08-26T12:58:47.968Z,6.40
2023-08-26T13:04:56.950Z,16.02
2023-08-26T13:11:05.164Z,16.67
2023-08-26T13:17:09.466Z,7.45
2023-08-26T13:23:15.116Z,8.05
2023-08-26T13:29:23.888Z,24.17
2023-08-26T13:35:27.028Z,13.30
2023-08-26T13:41:45.590Z,11.60
2023-08-26T13:47:48.176Z,8.57
2023-08-26T13:53:52.581Z,11.80
2023-08-26T13:59:57.013Z,8.18
2023-08-26T14:06:08.525Z,10.65
2023-08-26T14:12:19.050Z,6.70
2023-08-26T14:18:30.036Z,8.93
2023-08-26T14:24:32.984Z,11.57
2023-08-26T14:30:38.229Z,14.32
2023-08-26T14:36:49.171Z,10.75
2023-08-26T14:42:54.448Z,9.73
2023-08-26T14:48:56.942Z,10.18
2023-08-26T14:55:07.363Z,10.15
2023-08-26T15:01:20.473Z,9.68
2023-08-26T15:07:28.409Z,13.68
2023-08-26T15:13:48.035Z,15.35
2023-08-26T15:19:50.410Z,8.52
2023-08-26T15:25:55.933Z,13.45
2023-08-26T15:31:58.420Z,19.63
2023-08-26T15:38:12.845Z,10.50
2023-08-26T15:44:15.381Z,14.02
2023-08-26T15:50:17.789Z,8.30
2023-08-26T15:56:20.269Z,14.85
2023-08-26T16:02:22.752Z,13.43
2023-08-26T16:08:27.180Z,11.73
2023-08-26T16:14:31.486Z,9.25
2023-08-26T16:20:46.968Z,11.65
2023-08-26T16:26:50.686Z,7.35
2023-08-26T16:33:12.277Z,13.07
2023-08-26T16:39:17.663Z,16.15
2023-08-26T16:45:29.131Z,11.77
2023-08-26T16:51:32.589Z,13.35
2023-08-26T16:57:50.381Z,18.15
2023-08-26T17:03:56.652Z,52.97
2023-08-26T17:10:06.444Z,33.88
2023-08-26T17:16:15.643Z,31.95
2023-08-26T17:22:26.560Z,21.88
2023-08-26T17:28:28.570Z,37.33
2023-08-26T17:34:32.037Z,58.85
2023-08-26T17:40:47.647Z,78.78
2023-08-26T17:46:54.537Z,46.28
2023-08-26T17:53:01.530Z,48.47
2023-08-26T17:59:32.210Z,27.55
2023-08-26T18:05:39.498Z,24.70
2023-08-26T18:11:44.295Z,36.85
2023-08-26T18:17:49.836Z,38.80
2023-08-26T18:24:01.293Z,31.05
2023-08-26T18:30:08.120Z,348.90
2023-08-26T18:36:09.879Z,248.35
2023-08-26T18:42:12.056Z,164.43
2023-08-26T18:48:15.093Z,165.82
2023-08-26T18:54:24.412Z,118.88
2023-08-26T19:00:49.933Z,164.57
2023-08-26T19:06:55.359Z,127.57
2023-08-26T19:13:00.510Z,100.90
2023-08-26T19:19:06.682Z,96.45
2023-08-26T19:25:09.002Z,55.95
2023-08-26T19:31:11.293Z,61.75
2023-08-26T19:37:19.509Z,42.08
2023-08-26T19:43:24.356Z,39.22
2023-08-26T19:49:26.240Z,31.80
2023-08-26T19:55:50.839Z,41.45
2023-08-26T20:01:57.259Z,34.55
2023-08-26T20:08:00.536Z,44.05
2023-08-26T20:14:05.358Z,35.05
2023-08-26T20:20:14.841Z,37.03
2023-08-26T20:26:31.073Z,33.67
2023-08-26T20:32:33.933Z,26.40
2023-08-26T20:38:37.373Z,19.55
2023-08-26T20:44:41.607Z,13.15
2023-08-26T20:50:46.942Z,21.83
2023-08-26T20:56:54.795Z,19.33
2023-08-26T21:03:04.402Z,24.83
2023-08-26T21:09:08.211Z,25.65
2023-08-26T21:15:25.386Z,19.05
2023-08-26T21:21:30.942Z,21.48
2023-08-26T21:27:38.204Z,21.33
2023-08-26T21:34:01.764Z,17.42
2023-08-26T21:40:09.425Z,25.58
2023-08-26T21:46:13.994Z,23.33
2023-08-26T21:52:19.394Z,15.75
2023-08-26T21:58:21.873Z,28.65
2023-08-26T22:04:33.211Z,23.73
2023-08-26T22:10:45.838Z,16.88
2023-08-26T22:16:49.499Z,16.52
2023-08-26T22:22:56.936Z,17.35
2023-08-26T22:29:08.294Z,13.75
2023-08-26T22:35:24.806Z,33.33
2023-08-26T22:41:39.318Z,26.52
2023-08-26T22:47:43.535Z,14.85
2023-08-26T22:53:53.262Z,19.55
2023-08-26T22:59:56.746Z,15.32
2023-08-26T23:06:05.227Z,22.48
2023-08-26T23:12:13.680Z,23.33
2023-08-26T23:18:18.176Z,29.27
2023-08-26T23:24:21.677Z,20.95
2023-08-26T23:30:24.139Z,29.17
2023-08-26T23:36:40.692Z,21.63
2023-08-26T23:42:48.223Z,16.55
2023-08-26T23:48:52.664Z,17.38
2023-08-26T23:55:13.195Z,18.88
